Time;durP1;ratioP1;P1;durP2;ratioP2;P2;SDS_P1;SDS_P2;PMS_P1;PMS_P2;Temp;Humidity;BMP_temperature;BMP_pressure;BME280_temperature;BME280_humidity;BME280_pressure;Samples;Min_cycle;Max_cycle;Signal;HPM_P1;HPM_P2
2023/06/25 00:00:44;;;;;;;6.87;5.60;;;17.00;99.90;;;;;;472629;251;28842;-78
2023/06/25 00:02:45;;;;;;;5.33;4.77;;;16.90;99.90;;;;;;472613;251;28916;-80
2023/06/25 00:04:47;;;;;;;6.93;5.70;;;16.90;99.90;;;;;;472620;251;28846;-81
2023/06/25 00:06:48;;;;;;;6.03;5.43;;;16.90;99.90;;;;;;472611;251;28934;-79
2023/06/25 00:08:49;;;;;;;7.20;6.50;;;16.80;99.90;;;;;;472610;251;28928;-78
2023/06/25 00:10:50;;;;;;;9.57;6.87;;;16.70;99.90;;;;;;472628;245;28838;-80
2023/06/25 00:12:52;;;;;;;7.13;6.40;;;16.70;99.90;;;;;;472603;251;28938;-79
2023/06/25 00:14:53;;;;;;;6.60;5.70;;;16.60;99.90;;;;;;472629;251;28863;-81
2023/06/25 00:16:57;;;;;;;8.90;6.53;;;16.50;99.90;;;;;;472618;251;28854;-79
2023/06/25 00:18:55;;;;;;;7.33;6.10;;;16.50;99.90;;;;;;472447;252;29349;-80
2023/06/25 00:20:57;;;;;;;6.73;6.03;;;16.50;99.90;;;;;;472584;251;29280;-80
2023/06/25 00:22:58;;;;;;;7.10;6.17;;;16.50;99.90;;;;;;472574;251;29315;-79
2023/06/25 00:24:59;;;;;;;6.20;5.60;;;16.50;99.90;;;;;;472588;251;29642;-80
2023/06/25 00:27:00;;;;;;;6.30;5.70;;;16.40;99.90;;;;;;472612;251;28846;-79
2023/06/25 00:29:03;;;;;;;7.43;5.60;;;16.40;99.90;;;;;;472615;251;28870;-79
2023/06/25 00:31:04;;;;;;;5.83;5.00;;;16.40;99.90;;;;;;472577;251;28845;-80
2023/06/25 00:33:04;;;;;;;6.97;5.53;;;16.40;99.90;;;;;;472556;251;28983;-79
2023/06/25 00:35:06;;;;;;;5.97;5.40;;;16.50;99.90;;;;;;472616;251;28888;-80
2023/06/25 00:37:16;;;;;;;5.47;4.80;;;16.40;99.90;;;;;;472590;252;28837;-80
2023/06/25 00:39:08;;;;;;;6.47;5.77;;;16.40;99.90;;;;;;471971;252;28858;-80
2023/06/25 00:41:09;;;;;;;5.93;5.37;;;16.40;99.90;;;;;;472620;251;28854;-80
2023/06/25 00:43:14;;;;;;;7.70;5.37;;;16.40;99.90;;;;;;472613;251;29529;-78
2023/06/25 00:45:12;;;;;;;5.93;5.33;;;16.40;99.90;;;;;;472350;252;29757;-80
2023/06/25 00:47:13;;;;;;;6.03;5.40;;;16.40;99.90;;;;;;472597;251;29289;-80
2023/06/25 00:49:14;;;;;;;5.87;5.17;;;16.40;99.90;;;;;;472603;251;29333;-77
2023/06/25 00:51:15;;;;;;;6.33;5.73;;;16.40;99.90;;;;;;472604;251;28929;-78
2023/06/25 00:53:17;;;;;;;6.77;5.20;;;16.30;99.90;;;;;;472607;251;28866;-78
2023/06/25 00:55:18;;;;;;;7.57;6.00;;;16.20;99.90;;;;;;472594;251;28852;-80
2023/06/25 00:57:21;;;;;;;6.97;6.20;;;16.10;99.90;;;;;;472614;251;28855;-78
2023/06/25 00:59:23;;;;;;;6.50;5.90;;;16.10;99.90;;;;;;472537;252;29014;-79
2023/06/25 01:01:26;;;;;;;6.37;5.60;;;16.00;99.90;;;;;;472444;252;29019;-80
2023/06/25 01:03:26;;;;;;;7.60;5.90;;;15.90;99.90;;;;;;472319;252;28865;-80
2023/06/25 01:05:27;;;;;;;5.93;5.33;;;15.90;99.90;;;;;;472597;251;28886;-78
2023/06/25 01:07:28;;;;;;;7.00;5.83;;;16.00;99.90;;;;;;472610;251;28866;-79
2023/06/25 01:09:30;;;;;;;8.80;6.63;;;15.90;99.90;;;;;;472608;251;28939;-80
2023/06/25 01:11:31;;;;;;;6.17;5.57;;;16.00;99.90;;;;;;472621;251;28851;-77
2023/06/25 01:13:32;;;;;;;6.00;5.40;;;16.00;99.90;;;;;;472617;252;28975;-77
2023/06/25 01:15:33;;;;;;;5.90;5.23;;;16.00;99.90;;;;;;472619;251;28843;-80
2023/06/25 01:17:36;;;;;;;6.73;6.03;;;16.10;99.90;;;;;;472620;251;28836;-80
2023/06/25 01:19:36;;;;;;;6.27;5.17;;;16.10;99.90;;;;;;472586;251;29451;-78
2023/06/25 01:21:39;;;;;;;5.37;4.83;;;16.10;99.90;;;;;;472626;251;29310;-78
2023/06/25 01:23:38;;;;;;;8.10;6.03;;;16.10;99.90;;;;;;472563;251;29434;-80
2023/06/25 01:25:40;;;;;;;9.03;6.10;;;16.00;99.90;;;;;;472628;251;28946;-78
2023/06/25 01:27:41;;;;;;;6.93;5.70;;;16.00;99.90;;;;;;472630;251;28854;-78
2023/06/25 01:29:42;;;;;;;6.00;5.00;;;16.10;99.90;;;;;;472638;251;29002;-78
2023/06/25 01:31:43;;;;;;;5.87;5.27;;;16.00;99.90;;;;;;472617;251;28851;-80
2023/06/25 01:33:45;;;;;;;6.70;5.40;;;16.00;99.90;;;;;;472598;251;28870;-80
2023/06/25 01:35:46;;;;;;;7.53;6.60;;;16.00;99.90;;;;;;472626;251;28840;-78
2023/06/25 01:37:47;;;;;;;6.33;5.50;;;15.90;99.90;;;;;;472635;251;28940;-78
2023/06/25 01:39:48;;;;;;;6.27;5.40;;;15.90;99.90;;;;;;472624;251;28910;-79
2023/06/25 01:41:50;;;;;;;7.10;5.90;;;15.90;99.90;;;;;;472620;251;28839;-79
2023/06/25 01:43:51;;;;;;;8.30;6.53;;;15.80;99.90;;;;;;472613;251;29319;-80
2023/06/25 01:45:52;;;;;;;7.77;5.83;;;15.70;99.90;;;;;;472617;251;29430;-80
2023/06/25 01:47:53;;;;;;;8.03;5.57;;;15.60;99.90;;;;;;472619;251;29400;-80
2023/06/25 01:49:55;;;;;;;6.30;5.70;;;15.60;99.90;;;;;;472597;251;28931;-80
2023/06/25 01:51:56;;;;;;;6.70;6.00;;;15.60;99.90;;;;;;472617;251;28859;-79
2023/06/25 01:53:57;;;;;;;7.20;6.20;;;15.50;99.90;;;;;;472599;251;28858;-79
2023/06/25 01:55:59;;;;;;;8.27;6.57;;;15.50;99.90;;;;;;472602;251;28859;-80
2023/06/25 01:58:00;;;;;;;6.93;6.23;;;15.50;99.90;;;;;;472615;251;28878;-80
2023/06/25 02:00:01;;;;;;;9.07;7.10;;;15.50;99.90;;;;;;472604;245;28858;-80
2023/06/25 02:02:02;;;;;;;7.70;6.70;;;15.50;99.90;;;;;;472603;251;29032;-80
2023/06/25 02:04:03;;;;;;;9.93;6.33;;;15.40;99.90;;;;;;472597;251;28871;-80
2023/06/25 02:06:05;;;;;;;7.93;6.63;;;15.50;99.90;;;;;;472616;251;28945;-80
2023/06/25 02:08:06;;;;;;;8.10;6.70;;;15.40;99.90;;;;;;472596;251;28861;-80
2023/06/25 02:10:08;;;;;;;6.70;5.97;;;15.40;99.90;;;;;;472591;249;28865;-80
2023/06/25 02:12:09;;;;;;;7.63;6.60;;;15.40;99.90;;;;;;472598;252;28866;-80
2023/06/25 02:14:11;;;;;;;6.20;5.60;;;15.40;99.90;;;;;;472602;251;28956;-80
2023/06/25 02:16:12;;;;;;;7.63;5.83;;;15.40;99.90;;;;;;472614;251;29428;-80
2023/06/25 02:18:13;;;;;;;7.57;6.50;;;15.50;99.90;;;;;;472602;251;29423;-80
2023/06/25 02:20:14;;;;;;;8.40;6.63;;;15.50;99.90;;;;;;472605;251;29368;-78
2023/06/25 02:22:16;;;;;;;11.60;7.73;;;15.50;99.90;;;;;;472601;251;29339;-78
2023/06/25 02:24:17;;;;;;;7.40;6.50;;;15.40;99.90;;;;;;472617;251;28863;-77
2023/06/25 02:26:18;;;;;;;7.20;6.17;;;15.40;99.90;;;;;;472608;251;28895;-77
2023/06/25 02:28:19;;;;;;;6.87;6.10;;;15.40;99.90;;;;;;472608;252;28960;-80
2023/06/25 02:30:21;;;;;;;8.17;6.23;;;15.40;99.90;;;;;;472595;251;28850;-79
2023/06/25 02:32:22;;;;;;;7.83;5.47;;;15.40;99.90;;;;;;472603;251;28847;-78
2023/06/25 02:34:23;;;;;;;6.63;5.93;;;15.40;99.90;;;;;;472584;251;28963;-78
2023/06/25 02:36:24;;;;;;;7.47;6.00;;;15.40;99.90;;;;;;472590;251;28887;-80
2023/06/25 02:38:26;;;;;;;9.67;7.10;;;15.40;99.90;;;;;;472593;251;28860;-80
2023/06/25 02:40:29;;;;;;;6.90;6.20;;;15.30;99.90;;;;;;472609;251;29322;-80
2023/06/25 02:42:31;;;;;;;7.43;6.23;;;15.30;99.90;;;;;;472598;251;29328;-80
2023/06/25 02:44:32;;;;;;;9.20;6.30;;;15.30;99.90;;;;;;472621;251;29397;-78
2023/06/25 02:46:35;;;;;;;9.33;6.53;;;15.30;99.90;;;;;;472621;251;29328;-79
2023/06/25 02:48:34;;;;;;;7.23;5.93;;;15.30;99.90;;;;;;472535;252;28863;-77
2023/06/25 02:50:36;;;;;;;6.93;6.07;;;15.30;99.90;;;;;;472630;251;28962;-78
2023/06/25 02:52:37;;;;;;;6.83;6.13;;;15.20;99.90;;;;;;472633;251;28940;-80
2023/06/25 02:54:38;;;;;;;6.70;6.10;;;15.10;99.90;;;;;;472614;251;28873;-80
2023/06/25 02:56:39;;;;;;;6.73;5.90;;;15.10;99.90;;;;;;472611;251;28844;-79
2023/06/25 02:58:41;;;;;;;6.40;5.80;;;15.00;99.90;;;;;;472635;251;28867;-80
2023/06/25 03:00:42;;;;;;;6.10;5.50;;;15.00;99.90;;;;;;472634;251;28872;-79
2023/06/25 03:02:43;;;;;;;7.70;5.53;;;14.90;99.90;;;;;;472615;251;28875;-80
2023/06/25 03:04:44;;;;;;;8.87;6.60;;;14.90;99.90;;;;;;472612;245;28863;-79
2023/06/25 03:06:46;;;;;;;7.83;5.77;;;14.90;99.90;;;;;;472621;251;29305;-80
2023/06/25 03:08:47;;;;;;;7.00;5.47;;;14.90;99.90;;;;;;472628;251;29396;-79
2023/06/25 03:10:48;;;;;;;6.70;6.00;;;14.90;99.90;;;;;;472622;251;29390;-79
2023/06/25 03:12:49;;;;;;;6.57;5.93;;;14.90;99.90;;;;;;472627;251;28952;-79
2023/06/25 03:14:51;;;;;;;6.03;5.43;;;15.00;99.90;;;;;;472627;251;28851;-76
2023/06/25 03:16:52;;;;;;;6.40;5.80;;;14.90;99.90;;;;;;472617;251;28847;-79
2023/06/25 03:18:53;;;;;;;6.07;5.50;;;14.90;99.90;;;;;;472618;251;28948;-78
2023/06/25 03:20:55;;;;;;;7.43;5.70;;;14.90;99.90;;;;;;472627;251;28853;-78
2023/06/25 03:22:56;;;;;;;6.97;6.20;;;15.00;99.90;;;;;;472624;251;28927;-80
2023/06/25 03:24:57;;;;;;;5.97;5.40;;;14.90;99.90;;;;;;472629;251;28947;-80
2023/06/25 03:26:58;;;;;;;7.37;6.60;;;14.90;99.90;;;;;;472626;251;29014;-79
2023/06/25 03:29:00;;;;;;;6.30;5.70;;;14.90;99.90;;;;;;472621;251;28944;-80
2023/06/25 03:31:01;;;;;;;9.47;6.07;;;14.80;99.90;;;;;;472626;251;29341;-80
2023/06/25 03:33:02;;;;;;;8.77;6.00;;;14.90;99.90;;;;;;472612;251;29416;-80
2023/06/25 03:35:03;;;;;;;6.67;5.87;;;14.90;99.90;;;;;;472622;251;29413;-78
2023/06/25 03:37:05;;;;;;;6.23;5.63;;;14.90;99.90;;;;;;472666;251;29460;-77
2023/06/25 03:39:06;;;;;;;6.53;5.90;;;14.90;99.90;;;;;;472666;251;28939;-79
2023/06/25 03:41:07;;;;;;;8.40;6.23;;;14.90;99.90;;;;;;472659;251;28875;-77
2023/06/25 03:43:08;;;;;;;6.70;5.47;;;14.90;99.90;;;;;;472665;251;28937;-78
2023/06/25 03:45:10;;;;;;;8.23;5.73;;;14.90;99.90;;;;;;472626;251;28942;-80
2023/06/25 03:47:11;;;;;;;6.97;6.27;;;14.90;99.90;;;;;;472608;251;28858;-80
2023/06/25 03:49:12;;;;;;;6.03;5.47;;;14.80;99.90;;;;;;472621;251;28859;-79
2023/06/25 03:51:13;;;;;;;7.90;6.10;;;14.80;99.90;;;;;;472624;251;28960;-79
2023/06/25 03:53:15;;;;;;;6.90;6.00;;;14.80;99.90;;;;;;472623;251;28927;-80
2023/06/25 03:55:16;;;;;;;11.10;6.43;;;14.80;99.90;;;;;;472594;251;28860;-80
2023/06/25 03:57:17;;;;;;;8.57;6.60;;;14.80;99.90;;;;;;472620;251;29314;-80
2023/06/25 03:59:18;;;;;;;8.53;5.90;;;14.90;99.90;;;;;;472625;251;29416;-79
2023/06/25 04:01:20;;;;;;;6.40;5.70;;;14.90;99.90;;;;;;472615;251;29322;-78
2023/06/25 04:03:21;;;;;;;6.77;6.07;;;15.00;99.90;;;;;;472612;251;28843;-80
2023/06/25 04:05:22;;;;;;;6.87;6.17;;;15.00;99.90;;;;;;472609;251;28957;-80
2023/06/25 04:07:23;;;;;;;9.33;6.27;;;15.00;99.90;;;;;;472618;251;28944;-80
2023/06/25 04:09:25;;;;;;;6.77;5.97;;;15.00;99.90;;;;;;472602;252;28842;-80
2023/06/25 04:11:26;;;;;;;7.60;5.90;;;15.10;99.90;;;;;;472608;251;28862;-80
2023/06/25 04:13:27;;;;;;;7.53;6.17;;;15.10;99.90;;;;;;472616;251;28851;-79
2023/06/25 04:15:28;;;;;;;6.37;5.77;;;15.10;99.90;;;;;;472605;251;28946;-77
2023/06/25 04:17:30;;;;;;;7.30;6.00;;;15.10;99.90;;;;;;472619;251;28845;-78
2023/06/25 04:19:31;;;;;;;5.80;5.27;;;15.20;99.90;;;;;;472622;251;28936;-80
2023/06/25 04:21:32;;;;;;;6.53;5.83;;;15.20;99.90;;;;;;472618;245;30002;-79
2023/06/25 04:23:33;;;;;;;6.33;5.70;;;15.30;99.90;;;;;;472617;251;29324;-78
2023/06/25 04:25:35;;;;;;;7.03;6.30;;;15.30;99.90;;;;;;472613;251;29305;-76
2023/06/25 04:27:36;;;;;;;8.83;6.03;;;15.40;99.90;;;;;;472621;251;28925;-80
2023/06/25 04:29:37;;;;;;;7.70;6.50;;;15.50;99.90;;;;;;472643;245;28850;-80
2023/06/25 04:31:38;;;;;;;7.17;6.47;;;15.50;99.90;;;;;;472630;252;28881;-80
2023/06/25 04:33:41;;;;;;;7.40;6.23;;;15.60;99.90;;;;;;472613;251;28844;-80
2023/06/25 04:35:41;;;;;;;7.43;6.47;;;15.70;99.90;;;;;;472525;252;28938;-79
2023/06/25 04:37:42;;;;;;;5.70;5.13;;;15.70;99.90;;;;;;472657;251;28851;-79
2023/06/25 04:39:43;;;;;;;5.80;5.30;;;15.70;99.90;;;;;;472646;251;28871;-79
2023/06/25 04:41:45;;;;;;;5.57;5.07;;;15.70;99.90;;;;;;472625;251;28904;-78
2023/06/25 04:43:46;;;;;;;5.83;5.27;;;15.80;99.90;;;;;;472614;251;29342;-79
2023/06/25 04:45:47;;;;;;;5.50;5.00;;;15.90;99.90;;;;;;472631;251;29293;-79
2023/06/25 04:47:48;;;;;;;6.23;5.63;;;15.90;99.90;;;;;;472623;252;29323;-80
2023/06/25 04:49:50;;;;;;;5.80;5.30;;;16.00;99.90;;;;;;472625;251;29298;-80
2023/06/25 04:51:51;;;;;;;7.57;5.97;;;16.10;99.90;;;;;;472646;245;28851;-80
2023/06/25 04:53:52;;;;;;;6.20;5.60;;;16.10;99.90;;;;;;472610;252;28856;-80
2023/06/25 04:55:53;;;;;;;6.17;5.57;;;16.10;99.90;;;;;;472605;251;28970;-78
2023/06/25 04:57:55;;;;;;;6.50;5.90;;;16.10;99.90;;;;;;472616;251;28870;-80
2023/06/25 04:59:56;;;;;;;7.03;5.73;;;16.20;99.90;;;;;;472619;251;28863;-79
2023/06/25 05:01:57;;;;;;;7.53;6.17;;;16.20;99.90;;;;;;472638;251;28854;-80
2023/06/25 05:03:58;;;;;;;6.83;6.13;;;16.20;99.90;;;;;;472622;251;28854;-80
2023/06/25 05:06:00;;;;;;;7.50;5.87;;;16.30;99.90;;;;;;472626;251;28851;-80
2023/06/25 05:08:01;;;;;;;8.13;5.60;;;16.30;99.90;;;;;;472626;251;28865;-80
2023/06/25 05:10:02;;;;;;;6.13;5.53;;;16.30;99.90;;;;;;472615;251;29356;-79
2023/06/25 05:12:03;;;;;;;6.37;5.77;;;16.40;99.90;;;;;;472631;251;29349;-80
2023/06/25 05:14:05;;;;;;;5.77;5.27;;;16.40;99.90;;;;;;472623;251;29397;-80
2023/06/25 05:16:06;;;;;;;5.60;5.10;;;16.50;99.90;;;;;;472631;251;28830;-79
2023/06/25 05:18:07;;;;;;;7.00;5.43;;;16.60;99.90;;;;;;472626;251;28936;-81
2023/06/25 05:20:08;;;;;;;6.67;5.83;;;16.60;99.90;;;;;;472630;245;28942;-81
2023/06/25 05:22:10;;;;;;;6.40;5.07;;;16.70;99.90;;;;;;472626;245;28946;-81
2023/06/25 05:24:11;;;;;;;7.20;6.00;;;16.60;99.90;;;;;;472633;251;29029;-80
2023/06/25 05:26:12;;;;;;;7.80;5.50;;;16.70;99.90;;;;;;472623;251;28864;-79
2023/06/25 05:28:13;;;;;;;6.63;5.63;;;16.70;99.90;;;;;;472623;252;28878;-80
2023/06/25 05:30:15;;;;;;;6.60;5.80;;;16.80;99.90;;;;;;472609;251;28870;-79
2023/06/25 05:32:17;;;;;;;5.57;5.07;;;16.80;99.90;;;;;;472619;251;28950;-80
2023/06/25 05:34:17;;;;;;;6.30;5.50;;;16.80;99.90;;;;;;472560;251;29490;-80
2023/06/25 05:36:18;;;;;;;7.00;5.47;;;16.90;99.90;;;;;;472607;248;29512;-80
2023/06/25 05:38:20;;;;;;;5.80;5.20;;;17.00;99.90;;;;;;472632;251;29464;-80
2023/06/25 05:40:21;;;;;;;5.20;4.70;;;17.10;99.90;;;;;;472619;251;29355;-80
2023/06/25 05:42:22;;;;;;;6.03;5.43;;;17.10;99.90;;;;;;472619;251;28845;-80
2023/06/25 05:44:23;;;;;;;5.97;5.30;;;17.20;99.90;;;;;;472609;251;28974;-80
2023/06/25 05:46:25;;;;;;;5.77;5.00;;;17.30;99.90;;;;;;472608;251;28878;-81
2023/06/25 05:48:26;;;;;;;5.53;5.03;;;17.40;99.90;;;;;;472605;251;28941;-81
2023/06/25 05:50:27;;;;;;;5.93;4.73;;;17.40;99.90;;;;;;472610;251;28876;-81
2023/06/25 05:52:28;;;;;;;6.00;5.40;;;17.50;99.90;;;;;;472615;251;28853;-79
2023/06/25 05:54:30;;;;;;;6.40;5.30;;;17.50;99.90;;;;;;472611;251;28949;-80
2023/06/25 05:56:31;;;;;;;5.93;4.87;;;17.60;99.90;;;;;;472635;251;28868;-79
2023/06/25 05:58:32;;;;;;;5.40;4.90;;;17.60;99.90;;;;;;472602;251;29361;-80
2023/06/25 06:00:33;;;;;;;6.00;5.40;;;17.70;99.90;;;;;;472621;251;29440;-80
2023/06/25 06:02:35;;;;;;;5.33;4.83;;;17.80;99.90;;;;;;472614;251;29390;-81
2023/06/25 06:04:36;;;;;;;6.20;5.27;;;17.90;99.90;;;;;;472613;251;29293;-80
2023/06/25 06:06:37;;;;;;;5.00;4.50;;;18.00;99.90;;;;;;472605;251;28981;-79
2023/06/25 06:08:38;;;;;;;5.67;5.17;;;18.10;99.90;;;;;;472606;251;28861;-80
2023/06/25 06:10:40;;;;;;;6.20;5.57;;;18.20;99.90;;;;;;472612;251;28864;-80
2023/06/25 06:12:41;;;;;;;5.30;4.80;;;18.30;99.90;;;;;;472606;251;28844;-81
2023/06/25 06:14:43;;;;;;;5.70;5.10;;;18.40;99.90;;;;;;472604;251;28935;-81
2023/06/25 06:16:43;;;;;;;6.20;5.30;;;18.50;99.90;;;;;;472580;251;28945;-80
2023/06/25 06:18:45;;;;;;;7.40;4.83;;;18.60;99.90;;;;;;472602;245;28843;-80
2023/06/25 06:20:46;;;;;;;5.83;5.23;;;18.60;99.90;;;;;;472612;251;28891;-80
2023/06/25 06:22:47;;;;;;;5.80;5.30;;;18.80;99.90;;;;;;472600;251;28858;-81
2023/06/25 06:24:48;;;;;;;5.70;5.10;;;18.90;99.90;;;;;;472605;251;29309;-80
2023/06/25 06:26:50;;;;;;;6.33;5.50;;;18.90;99.90;;;;;;472606;251;29804;-80
2023/06/25 06:28:51;;;;;;;6.00;5.00;;;19.00;99.90;;;;;;472597;245;29366;-81
2023/06/25 06:30:52;;;;;;;5.77;5.23;;;19.30;99.90;;;;;;472604;251;28872;-80
2023/06/25 06:32:53;;;;;;;5.53;5.03;;;19.30;99.90;;;;;;472602;245;28845;-81
2023/06/25 06:34:55;;;;;;;5.43;4.93;;;19.40;99.90;;;;;;472589;252;28850;-81
2023/06/25 06:36:56;;;;;;;7.07;5.40;;;19.50;99.90;;;;;;472602;251;28867;-81
2023/06/25 06:38:57;;;;;;;6.97;4.77;;;19.70;99.90;;;;;;472603;251;28840;-80
2023/06/25 06:40:58;;;;;;;5.33;4.80;;;20.00;99.90;;;;;;472601;251;28834;-80
2023/06/25 06:43:00;;;;;;;4.80;4.40;;;20.30;99.90;;;;;;472591;251;28921;-81
2023/06/25 06:45:01;;;;;;;5.57;4.97;;;20.30;99.90;;;;;;472600;252;28849;-80
2023/06/25 06:47:02;;;;;;;5.73;5.10;;;20.50;99.90;;;;;;472601;251;28948;-80
2023/06/25 06:49:03;;;;;;;5.83;4.80;;;20.90;99.90;;;;;;472603;251;29346;-79
2023/06/25 06:51:05;;;;;;;5.57;4.37;;;20.80;99.90;;;;;;472607;251;29309;-81
2023/06/25 06:53:06;;;;;;;6.00;4.73;;;20.80;99.90;;;;;;472602;251;29306;-81
2023/06/25 06:55:07;;;;;;;4.90;4.40;;;20.90;99.90;;;;;;472593;251;29291;-80
2023/06/25 06:57:08;;;;;;;5.40;4.90;;;21.10;99.90;;;;;;472592;251;28872;-79
2023/06/25 06:59:10;;;;;;;5.37;4.80;;;21.30;99.90;;;;;;472562;251;28834;-79
2023/06/25 07:01:11;;;;;;;6.53;4.63;;;21.50;99.90;;;;;;472577;251;28872;-81
2023/06/25 07:03:12;;;;;;;5.40;4.70;;;21.80;99.90;;;;;;472577;251;28863;-80
2023/06/25 07:05:13;;;;;;;5.37;4.23;;;21.80;99.90;;;;;;472595;251;28889;-80
2023/06/25 07:07:15;;;;;;;5.00;4.50;;;21.80;99.90;;;;;;472603;251;28989;-80
2023/06/25 07:09:16;;;;;;;4.70;4.30;;;21.70;99.90;;;;;;472587;251;28857;-80
2023/06/25 07:11:18;;;;;;;5.97;4.57;;;21.70;99.90;;;;;;472593;251;28848;-80
2023/06/25 07:13:18;;;;;;;8.30;5.10;;;21.60;99.90;;;;;;472585;251;29251;-79
2023/06/25 07:15:20;;;;;;;4.63;4.23;;;21.70;99.90;;;;;;472585;248;29383;-80
2023/06/25 07:17:21;;;;;;;4.70;4.30;;;21.80;99.90;;;;;;472596;251;29303;-78
2023/06/25 07:19:22;;;;;;;5.73;5.20;;;21.90;99.90;;;;;;472601;251;29330;-79
2023/06/25 07:21:23;;;;;;;4.53;4.13;;;21.90;99.90;;;;;;472607;251;28876;-80
2023/06/25 07:23:25;;;;;;;5.70;4.90;;;21.90;99.90;;;;;;472597;245;28870;-80
2023/06/25 07:25:26;;;;;;;5.60;4.90;;;21.90;99.90;;;;;;472603;251;28857;-80
2023/06/25 07:27:27;;;;;;;5.43;4.93;;;22.20;99.90;;;;;;472606;251;28826;-79
2023/06/25 07:29:29;;;;;;;7.00;4.67;;;22.20;99.90;;;;;;472613;251;28938;-80
2023/06/25 07:31:30;;;;;;;5.20;4.70;;;22.10;99.90;;;;;;472609;251;28858;-79
2023/06/25 07:33:31;;;;;;;5.60;4.63;;;22.20;99.90;;;;;;472629;251;28955;-80
2023/06/25 07:35:32;;;;;;;4.23;3.83;;;22.30;99.90;;;;;;472622;251;28939;-79
2023/06/25 07:37:34;;;;;;;5.17;4.67;;;22.20;99.90;;;;;;472620;251;28865;-80
2023/06/25 07:39:35;;;;;;;7.17;4.90;;;22.10;99.90;;;;;;472614;251;29310;-80
2023/06/25 07:41:36;;;;;;;4.97;4.37;;;22.50;99.90;;;;;;472612;245;29408;-78
2023/06/25 07:43:37;;;;;;;4.67;4.23;;;22.50;99.90;;;;;;472621;245;29364;-78
2023/06/25 07:45:39;;;;;;;9.47;4.70;;;22.50;99.90;;;;;;472618;251;28854;-78
2023/06/25 07:47:40;;;;;;;5.63;4.37;;;22.50;99.90;;;;;;472627;251;28930;-79
2023/06/25 07:49:41;;;;;;;4.57;4.13;;;22.70;99.90;;;;;;472629;251;28853;-78
2023/06/25 07:51:42;;;;;;;5.53;4.40;;;22.60;99.90;;;;;;472622;251;28949;-80
2023/06/25 07:53:44;;;;;;;5.50;4.30;;;22.60;99.90;;;;;;472619;251;28944;-79
2023/06/25 07:55:46;;;;;;;5.37;4.87;;;22.70;99.90;;;;;;472611;251;28858;-79
2023/06/25 07:57:46;;;;;;;7.40;4.63;;;22.70;99.90;;;;;;472519;252;28857;-77
2023/06/25 07:59:47;;;;;;;4.70;4.30;;;23.00;99.90;;;;;;472627;251;28936;-79
2023/06/25 08:01:49;;;;;;;4.87;4.33;;;22.90;99.90;;;;;;472620;251;28965;-79
2023/06/25 08:03:50;;;;;;;6.23;5.40;;;23.40;99.30;;;;;;472625;251;29374;-79
2023/06/25 08:05:51;;;;;;;9.53;4.50;;;23.40;98.70;;;;;;472624;251;29324;-80
2023/06/25 08:07:52;;;;;;;5.20;4.47;;;23.20;99.60;;;;;;472623;245;29318;-79
2023/06/25 08:09:54;;;;;;;4.57;4.17;;;23.20;99.40;;;;;;472625;251;29431;-79
2023/06/25 08:11:55;;;;;;;6.53;4.70;;;23.40;99.00;;;;;;472620;251;28958;-78
2023/06/25 08:13:56;;;;;;;4.47;4.07;;;23.60;98.20;;;;;;472615;251;28844;-79
2023/06/25 08:15:57;;;;;;;5.73;5.13;;;23.50;99.00;;;;;;472603;251;28866;-80
2023/06/25 08:17:59;;;;;;;5.70;5.07;;;23.40;99.30;;;;;;472618;251;28845;-80
2023/06/25 08:20:00;;;;;;;5.50;4.57;;;23.40;99.10;;;;;;472616;251;28951;-81
2023/06/25 08:22:01;;;;;;;4.80;4.30;;;23.30;99.10;;;;;;472616;245;28847;-79
2023/06/25 08:24:02;;;;;;;4.97;4.47;;;23.50;99.40;;;;;;472609;251;28841;-80
2023/06/25 08:26:04;;;;;;;5.53;4.67;;;23.60;98.80;;;;;;472622;245;28874;-80
2023/06/25 08:28:05;;;;;;;5.77;5.10;;;23.70;99.20;;;;;;472621;251;29414;-79
2023/06/25 08:30:06;;;;;;;7.43;4.30;;;23.70;98.30;;;;;;472612;251;29435;-79
2023/06/25 08:32:07;;;;;;;5.37;4.50;;;23.80;98.90;;;;;;472617;251;29287;-80
2023/06/25 08:34:09;;;;;;;4.77;4.37;;;23.80;98.00;;;;;;472624;251;29325;-80
2023/06/25 08:36:10;;;;;;;5.13;4.63;;;23.80;98.40;;;;;;472616;251;28922;-80
2023/06/25 08:38:11;;;;;;;4.30;3.90;;;23.70;98.10;;;;;;472618;251;28839;-80
2023/06/25 08:40:12;;;;;;;5.83;4.53;;;23.70;98.70;;;;;;472619;251;28844;-79
2023/06/25 08:42:14;;;;;;;4.80;4.40;;;23.60;99.10;;;;;;472613;251;28870;-80
2023/06/25 08:44:15;;;;;;;5.10;4.13;;;23.70;98.70;;;;;;472619;251;28848;-79
2023/06/25 08:46:16;;;;;;;5.03;4.47;;;23.70;99.10;;;;;;472613;245;28964;-80
2023/06/25 08:48:17;;;;;;;5.27;4.60;;;23.90;98.10;;;;;;472617;249;28850;-81
2023/06/25 08:50:19;;;;;;;5.43;4.77;;;24.10;97.00;;;;;;472615;251;28895;-80
2023/06/25 08:52:24;;;;;;;6.00;4.67;;;24.20;96.10;;;;;;472612;251;28853;-79
2023/06/25 08:54:21;;;;;;;4.50;4.17;;;24.30;96.00;;;;;;472388;246;29393;-80
2023/06/25 08:56:22;;;;;;;5.13;4.47;;;24.20;96.60;;;;;;472613;251;29518;-80
2023/06/25 08:58:24;;;;;;;5.53;4.50;;;24.20;95.60;;;;;;472616;251;29325;-80
2023/06/25 09:00:25;;;;;;;5.40;4.90;;;24.20;96.40;;;;;;472609;251;28849;-81
2023/06/25 09:02:26;;;;;;;5.53;4.63;;;24.10;95.50;;;;;;472603;251;28962;-79
2023/06/25 09:04:27;;;;;;;5.17;4.67;;;24.10;96.20;;;;;;472625;251;28950;-80
2023/06/25 09:06:29;;;;;;;5.30;4.33;;;24.20;96.30;;;;;;472621;245;28998;-80
2023/06/25 09:08:30;;;;;;;5.83;4.43;;;24.20;95.50;;;;;;472610;251;28854;-80
2023/06/25 09:10:31;;;;;;;5.60;4.60;;;24.50;94.30;;;;;;472614;251;28932;-79
2023/06/25 09:12:32;;;;;;;5.40;4.23;;;24.70;93.80;;;;;;472624;251;28954;-80
2023/06/25 09:14:34;;;;;;;4.67;4.23;;;24.70;93.50;;;;;;472621;251;28901;-79
2023/06/25 09:16:35;;;;;;;6.20;4.90;;;24.80;93.70;;;;;;472608;245;28976;-80
2023/06/25 09:18:36;;;;;;;4.90;4.50;;;24.70;92.80;;;;;;472616;251;29394;-79
2023/06/25 09:20:37;;;;;;;4.50;4.10;;;24.50;93.40;;;;;;472614;251;29290;-80
2023/06/25 09:22:39;;;;;;;4.77;4.37;;;24.50;93.30;;;;;;472620;251;29409;-80
2023/06/25 09:24:40;;;;;;;6.23;4.60;;;24.60;93.90;;;;;;479409;236;28847;-80
2023/06/25 09:26:41;;;;;;;5.43;4.83;;;24.60;94.10;;;;;;481988;246;28896;-79
2023/06/25 09:28:42;;;;;;;5.07;4.50;;;24.60;93.70;;;;;;481982;246;28752;-80
2023/06/25 09:30:44;;;;;;;4.50;4.10;;;24.60;93.70;;;;;;481987;246;28763;-81
2023/06/25 09:32:45;;;;;;;4.53;4.10;;;24.70;92.90;;;;;;481986;246;28788;-79
2023/06/25 09:34:46;;;;;;;4.70;4.20;;;24.70;93.20;;;;;;481983;246;28776;-79
2023/06/25 09:36:47;;;;;;;6.03;4.37;;;24.80;92.70;;;;;;481961;246;29000;-80
2023/06/25 09:38:51;;;;;;;5.00;4.50;;;24.90;91.70;;;;;;481968;246;28753;-78
2023/06/25 09:40:50;;;;;;;6.30;5.00;;;25.10;91.80;;;;;;481897;247;28861;-80
2023/06/25 09:42:51;;;;;;;5.43;4.27;;;25.00;92.00;;;;;;481973;246;29317;-81
2023/06/25 09:44:52;;;;;;;5.00;4.60;;;25.20;93.10;;;;;;481977;246;29348;-80
2023/06/25 09:46:54;;;;;;;4.53;4.13;;;25.10;91.50;;;;;;481972;246;29762;-79
2023/06/25 09:48:56;;;;;;;5.67;4.30;;;25.20;91.00;;;;;;481925;246;29246;-80
2023/06/25 09:50:57;;;;;;;7.70;4.47;;;25.20;90.60;;;;;;481949;246;28952;-79
2023/06/25 09:52:57;;;;;;;5.53;4.53;;;25.10;91.50;;;;;;481960;246;28882;-78
2023/06/25 09:54:59;;;;;;;5.67;4.50;;;25.10;91.00;;;;;;481962;246;28848;-79
2023/06/25 09:57:00;;;;;;;6.47;4.93;;;25.10;91.60;;;;;;481974;246;28752;-80
2023/06/25 09:59:01;;;;;;;9.30;5.40;;;25.40;90.80;;;;;;481985;246;28759;-80
2023/06/25 10:01:02;;;;;;;6.03;4.80;;;25.40;89.30;;;;;;481981;246;28983;-80
2023/06/25 10:03:04;;;;;;;5.40;4.50;;;25.30;90.70;;;;;;481975;246;28872;-79
2023/06/25 10:05:05;;;;;;;5.80;4.70;;;25.30;90.40;;;;;;481977;246;28884;-79
2023/06/25 10:07:06;;;;;;;4.70;4.30;;;25.40;90.00;;;;;;481967;246;29671;-80
2023/06/25 10:09:07;;;;;;;5.60;5.00;;;25.20;90.20;;;;;;481967;246;29354;-79
2023/06/25 10:11:09;;;;;;;6.83;3.97;;;25.30;90.80;;;;;;481974;246;29307;-79
2023/06/25 10:13:10;;;;;;;5.53;4.73;;;25.40;91.70;;;;;;481962;246;29329;-79
2023/06/25 10:15:11;;;;;;;4.80;4.40;;;25.40;90.30;;;;;;481967;246;28875;-79
2023/06/25 10:17:12;;;;;;;5.40;4.90;;;25.30;90.20;;;;;;481959;246;28762;-78
2023/06/25 10:19:14;;;;;;;5.00;4.30;;;25.20;90.90;;;;;;481974;246;28869;-80
2023/06/25 10:21:15;;;;;;;5.90;5.27;;;25.40;90.90;;;;;;481969;246;28864;-78
2023/06/25 10:23:16;;;;;;;5.33;4.80;;;25.50;90.50;;;;;;481977;246;28761;-77
2023/06/25 10:25:17;;;;;;;5.83;5.07;;;25.60;90.60;;;;;;481944;246;28875;-78
2023/06/25 10:27:19;;;;;;;5.47;4.97;;;25.60;90.40;;;;;;481962;246;28868;-80
2023/06/25 10:29:20;;;;;;;5.20;4.70;;;25.60;90.40;;;;;;481974;246;28862;-80
2023/06/25 10:31:21;;;;;;;5.30;4.80;;;25.50;90.90;;;;;;481969;246;29296;-80